Terminal Aerodrome Forecast
Issued by NWS

Home | Current Version | Previous Version | Text Only | Print | Product List | Glossary On
Versions: 1 2 3 4 5 6 7 8 9 10 11 12 13 14 15 16 17 18 19 20
000
FTUS43 KABR 272323
TAFPIR
TAF
KPIR 272323Z 2800/2824 14009KT P6SM VCSH SCT100 OVC250
     FM280200 15010KT P6SM -SHRA VCTS SCT050CB OVC250
     FM280400 15010KT P6SM OVC250 PROB30 2820/2824 -TSRA BKN050CB=

USA.gov is the U.S. government's official web portal to all federal, state and local government web resources and services.